createdAt,value
2023-03-01T00:01:43.005Z,21.80
2023-03-01T00:04:10.742Z,21.80
2023-03-01T00:06:38.798Z,21.80
2023-03-01T00:09:06.840Z,21.80
2023-03-01T00:11:36.260Z,21.80
2023-03-01T00:14:05.682Z,21.80
2023-03-01T00:16:35.455Z,21.80
2023-03-01T00:19:04.224Z,21.80
2023-03-01T00:21:31.980Z,21.80
2023-03-01T00:23:59.897Z,21.80
2023-03-01T00:26:28.425Z,21.80
2023-03-01T00:28:59.808Z,21.80
2023-03-01T00:31:30.046Z,21.80
2023-03-01T00:33:59.080Z,21.80
2023-03-01T00:36:29.867Z,21.80
2023-03-01T00:38:58.613Z,21.80
2023-03-01T00:41:28.143Z,21.80
2023-03-01T00:43:57.641Z,21.80
2023-03-01T00:46:28.348Z,21.80
2023-03-01T00:48:56.212Z,21.80
2023-03-01T00:51:26.240Z,21.80
2023-03-01T00:53:55.792Z,21.80
2023-03-01T00:56:23.617Z,21.80
2023-03-01T00:58:51.717Z,21.80
2023-03-01T01:01:23.697Z,21.80
2023-03-01T01:03:53.641Z,21.80
2023-03-01T01:06:23.234Z,21.80
2023-03-01T01:08:51.786Z,21.80
2023-03-01T01:11:19.578Z,21.80
2023-03-01T01:13:48.349Z,21.90
2023-03-01T01:16:17.093Z,21.80
2023-03-01T01:18:46.580Z,21.80
2023-03-01T01:21:15.949Z,21.80
2023-03-01T01:23:44.898Z,21.90
2023-03-01T01:26:15.844Z,21.80
2023-03-01T01:28:43.682Z,21.80
2023-03-01T01:31:11.487Z,21.80
2023-03-01T01:33:39.787Z,21.80
2023-03-01T01:36:09.839Z,21.80
2023-03-01T01:38:38.212Z,21.80
2023-03-01T01:41:07.155Z,21.80
2023-03-01T01:43:36.621Z,21.80
2023-03-01T01:46:07.048Z,21.80
2023-03-01T01:48:42.575Z,21.80
2023-03-01T01:51:15.871Z,21.90
2023-03-01T01:53:44.676Z,21.80
2023-03-01T01:56:14.249Z,21.80
2023-03-01T01:58:44.387Z,21.80
2023-03-01T02:01:13.154Z,21.80
2023-03-01T02:03:43.952Z,21.80
2023-03-01T02:06:21.240Z,21.80
2023-03-01T02:08:52.467Z,21.80
2023-03-01T02:11:21.065Z,21.90
2023-03-01T02:13:50.434Z,21.80
2023-03-01T02:16:19.185Z,21.80
2023-03-01T02:18:47.353Z,21.80
2023-03-01T02:21:31.394Z,21.80
2023-03-01T02:24:04.776Z,21.80
2023-03-01T02:26:42.278Z,21.80
2023-03-01T02:29:11.958Z,21.80
2023-03-01T02:31:45.908Z,21.80
2023-03-01T02:34:16.030Z,21.80
2023-03-01T02:36:48.860Z,21.80
2023-03-01T02:39:20.715Z,21.80
2023-03-01T02:41:52.200Z,21.80
2023-03-01T02:44:21.376Z,21.80
2023-03-01T02:46:51.346Z,21.80
2023-03-01T02:49:25.772Z,21.80
2023-03-01T02:52:08.713Z,21.80
2023-03-01T02:54:43.102Z,21.80
2023-03-01T02:57:11.303Z,21.80
2023-03-01T02:59:43.354Z,21.80
2023-03-01T03:02:36.630Z,21.90
2023-03-01T03:05:10.432Z,21.80
2023-03-01T03:07:40.801Z,21.80
2023-03-01T03:10:12.866Z,21.80
2023-03-01T03:12:41.434Z,21.80
2023-03-01T03:15:13.515Z,21.80
2023-03-01T03:17:45.166Z,21.80
2023-03-01T03:20:19.729Z,21.80
2023-03-01T03:22:48.392Z,21.80
2023-03-01T03:25:16.704Z,21.80
2023-03-01T03:27:46.433Z,21.80
2023-03-01T03:30:17.809Z,21.80
2023-03-01T03:32:53.114Z,21.80
2023-03-01T03:35:22.342Z,21.80
2023-03-01T03:38:06.957Z,21.80
2023-03-01T03:40:39.009Z,21.80
2023-03-01T03:43:08.676Z,21.80
2023-03-01T03:45:38.420Z,21.80
2023-03-01T03:48:08.698Z,21.80
2023-03-01T03:50:36.424Z,21.80
2023-03-01T03:53:06.916Z,21.80
2023-03-01T03:55:35.285Z,21.80
2023-03-01T03:58:07.562Z,21.80
2023-03-01T04:00:37.870Z,21.80
2023-03-01T04:03:05.669Z,21.80
2023-03-01T04:05:33.856Z,21.80
2023-03-01T04:08:07.798Z,21.80
2023-03-01T04:10:37.587Z,21.80
2023-03-01T04:13:05.760Z,21.80
2023-03-01T04:15:34.285Z,21.80
2023-03-01T04:18:03.764Z,21.80
2023-03-01T04:20:34.477Z,21.80
2023-03-01T04:23:11.322Z,21.80
2023-03-01T04:25:40.736Z,21.80
2023-03-01T04:28:09.394Z,21.80
2023-03-01T04:30:37.520Z,21.80
2023-03-01T04:33:08.698Z,21.80
2023-03-01T04:35:37.950Z,21.80
2023-03-01T04:38:06.523Z,21.80
2023-03-01T04:40:34.919Z,21.80
2023-03-01T04:43:03.045Z,21.80
2023-03-01T04:45:30.962Z,21.80
2023-03-01T04:47:59.420Z,21.80
2023-03-01T04:50:28.522Z,21.80
2023-03-01T04:52:59.270Z,21.80
2023-03-01T04:55:28.413Z,21.80
2023-03-01T04:57:56.760Z,21.80
2023-03-01T05:00:25.186Z,21.80
2023-03-01T05:02:55.165Z,21.80
2023-03-01T05:05:26.804Z,21.80
2023-03-01T05:07:57.987Z,21.80
2023-03-01T05:10:27.239Z,21.80
2023-03-01T05:12:54.937Z,21.80
2023-03-01T05:15:26.327Z,21.70
2023-03-01T05:17:55.091Z,21.70
2023-03-01T05:20:24.754Z,21.70
2023-03-01T05:22:53.045Z,21.80
2023-03-01T05:25:22.289Z,21.70
2023-03-01T05:27:50.458Z,21.80
2023-03-01T05:30:18.991Z,21.70
2023-03-01T05:32:48.651Z,21.70
2023-03-01T05:35:18.393Z,21.70
2023-03-01T05:37:48.236Z,21.70
2023-03-01T05:40:19.232Z,21.70
2023-03-01T05:42:50.249Z,21.70
2023-03-01T05:45:19.188Z,21.70
2023-03-01T05:47:48.477Z,21.70
2023-03-01T05:50:19.844Z,21.70
2023-03-01T05:52:49.275Z,21.70
2023-03-01T05:55:18.060Z,21.70
2023-03-01T05:57:45.856Z,21.70
2023-03-01T06:00:17.074Z,21.70
2023-03-01T06:02:44.868Z,21.70
2023-03-01T06:05:14.605Z,21.70
2023-03-01T06:07:42.834Z,21.70
2023-03-01T06:10:12.354Z,21.70
2023-03-01T06:12:41.133Z,21.70
2023-03-01T06:15:10.665Z,21.70
2023-03-01T06:17:41.485Z,21.70
2023-03-01T06:20:12.104Z,21.70
2023-03-01T06:22:39.954Z,21.70
2023-03-01T06:25:08.583Z,21.70
2023-03-01T06:27:36.489Z,21.70
2023-03-01T06:30:04.863Z,21.80
2023-03-01T06:32:32.697Z,21.80
2023-03-01T06:35:01.752Z,21.80
2023-03-01T06:37:29.438Z,21.80
2023-03-01T06:39:57.131Z,21.80
2023-03-01T06:42:24.845Z,21.80
2023-03-01T06:44:52.545Z,21.80
2023-03-01T06:47:20.220Z,21.80
2023-03-01T06:49:47.908Z,21.80
2023-03-01T06:52:16.914Z,21.80
2023-03-01T06:54:44.690Z,21.80
2023-03-01T06:57:12.399Z,21.80
2023-03-01T06:59:40.124Z,21.80
2023-03-01T07:02:08.046Z,21.80
2023-03-01T07:04:35.756Z,21.80
2023-03-01T07:07:03.663Z,21.80
2023-03-01T07:09:32.916Z,21.70
2023-03-01T07:12:00.755Z,21.80
2023-03-01T07:14:28.728Z,21.70
2023-03-01T07:16:56.470Z,21.70
2023-03-01T07:19:24.894Z,21.70
2023-03-01T07:21:52.648Z,21.70
2023-03-01T07:24:20.367Z,21.70
2023-03-01T07:26:51.806Z,21.70
2023-03-01T07:29:20.286Z,21.80
2023-03-01T07:31:48.189Z,21.70
2023-03-01T07:34:16.123Z,21.80
2023-03-01T07:36:44.171Z,21.80
2023-03-01T07:39:12.112Z,21.80
2023-03-01T07:41:39.834Z,21.80
2023-03-01T07:44:08.876Z,21.80
2023-03-01T07:46:36.557Z,21.80
2023-03-01T07:49:05.499Z,21.80
2023-03-01T07:51:33.174Z,21.80
2023-03-01T07:54:00.865Z,21.80
2023-03-01T07:56:28.733Z,21.80
2023-03-01T07:58:56.652Z,21.80
2023-03-01T08:01:25.650Z,21.80
2023-03-01T08:03:53.646Z,21.80
2023-03-01T08:06:21.366Z,21.80
2023-03-01T08:08:49.231Z,21.80
2023-03-01T08:11:17.771Z,21.80
2023-03-01T08:13:46.113Z,21.80
2023-03-01T08:16:15.849Z,21.80
2023-03-01T08:18:45.013Z,21.90
2023-03-01T08:21:14.704Z,21.80
2023-03-01T08:23:43.311Z,21.80
2023-03-01T08:26:13.008Z,21.80
2023-03-01T08:28:41.616Z,21.80
2023-03-01T08:31:16.990Z,21.80
2023-03-01T08:33:51.320Z,21.80
2023-03-01T08:36:19.298Z,21.80
2023-03-01T08:38:47.006Z,21.80
2023-03-01T08:41:15.324Z,21.80
2023-03-01T08:43:43.224Z,21.80
2023-03-01T08:46:11.872Z,21.80
2023-03-01T08:48:39.881Z,21.80
2023-03-01T08:51:14.368Z,21.80
2023-03-01T08:53:42.882Z,21.80
2023-03-01T08:56:11.841Z,21.80
2023-03-01T08:58:40.673Z,21.80
2023-03-01T09:01:13.339Z,21.80
2023-03-01T09:03:41.420Z,21.90
2023-03-01T09:06:10.264Z,21.80
2023-03-01T09:08:40.630Z,21.80
2023-03-01T09:11:09.986Z,21.90
2023-03-01T09:13:37.723Z,21.90
2023-03-01T09:16:08.328Z,21.90
2023-03-01T09:18:37.579Z,21.90
2023-03-01T09:21:08.052Z,21.90
2023-03-01T09:23:37.225Z,21.90
2023-03-01T09:26:06.847Z,21.90
2023-03-01T09:28:34.557Z,21.90
2023-03-01T09:31:03.455Z,21.90
2023-03-01T09:33:32.722Z,21.90
2023-03-01T09:36:01.287Z,21.90
2023-03-01T09:38:29.415Z,21.90
2023-03-01T09:40:57.671Z,21.90
2023-03-01T09:43:33.282Z,21.90
2023-03-01T09:46:05.279Z,21.90
2023-03-01T09:48:43.265Z,22.00
2023-03-01T09:51:19.230Z,22.00
2023-03-01T09:53:47.097Z,22.00
2023-03-01T09:56:21.824Z,22.00
2023-03-01T09:58:57.666Z,22.00
2023-03-01T10:01:33.695Z,22.00
2023-03-01T10:04:13.326Z,22.00
2023-03-01T10:06:47.620Z,22.00
2023-03-01T10:09:18.852Z,22.00
2023-03-01T10:11:52.104Z,22.00
2023-03-01T10:14:32.405Z,22.00
2023-03-01T10:17:03.810Z,22.10
2023-03-01T10:19:35.660Z,22.10
2023-03-01T10:22:11.426Z,22.10
2023-03-01T10:24:39.360Z,22.10
2023-03-01T10:27:11.221Z,22.10
2023-03-01T10:29:47.954Z,22.10
2023-03-01T10:32:16.014Z,22.10
2023-03-01T10:34:43.882Z,22.10
2023-03-01T10:37:14.857Z,22.20
2023-03-01T10:40:02.383Z,22.20
2023-03-01T10:42:33.389Z,22.20
2023-03-01T10:45:18.321Z,22.20
2023-03-01T10:47:46.028Z,22.20
2023-03-01T10:50:22.093Z,22.20
2023-03-01T10:53:00.369Z,22.20
2023-03-01T10:55:33.568Z,22.20
2023-03-01T10:58:20.393Z,22.30
2023-03-01T11:00:52.308Z,22.30
2023-03-01T11:03:24.120Z,22.30
2023-03-01T11:05:58.121Z,22.30
2023-03-01T11:08:35.247Z,22.30
2023-03-01T11:11:21.732Z,22.20
2023-03-01T11:13:58.875Z,22.30
2023-03-01T11:16:31.544Z,22.30
2023-03-01T11:19:01.652Z,22.30
2023-03-01T11:21:33.122Z,22.30
2023-03-01T11:24:03.509Z,22.30
2023-03-01T11:26:36.320Z,22.30
2023-03-01T11:29:08.094Z,22.40
2023-03-01T11:31:40.474Z,22.40
2023-03-01T11:34:16.640Z,22.40
2023-03-01T11:36:51.186Z,22.40
2023-03-01T11:39:24.016Z,22.40
2023-03-01T11:42:09.326Z,22.40
2023-03-01T11:44:44.946Z,22.40
2023-03-01T11:47:32.524Z,22.30
2023-03-01T11:50:20.312Z,22.30
2023-03-01T11:53:06.352Z,22.30
2023-03-01T11:55:52.347Z,22.30
2023-03-01T11:58:35.615Z,22.30
2023-03-01T12:01:16.640Z,22.30
2023-03-01T12:04:16.581Z,22.30
2023-03-01T12:06:57.816Z,22.30
2023-03-01T12:09:39.283Z,22.30
2023-03-01T12:12:29.891Z,22.30
2023-03-01T12:15:21.701Z,22.30
2023-03-01T12:18:09.505Z,22.40
2023-03-01T12:20:47.627Z,22.40
2023-03-01T12:23:30.879Z,22.40
2023-03-01T12:26:04.635Z,22.40
2023-03-01T12:28:44.331Z,22.40
2023-03-01T12:32:05.903Z,22.40
2023-03-01T12:34:46.936Z,22.40
2023-03-01T12:37:27.151Z,22.40
2023-03-01T12:40:13.546Z,22.50
2023-03-01T12:42:51.176Z,22.50
2023-03-01T12:45:34.349Z,22.50
2023-03-01T12:48:20.837Z,22.50
2023-03-01T12:50:50.649Z,22.50
2023-03-01T12:53:26.041Z,22.50
2023-03-01T12:55:56.515Z,22.50
2023-03-01T12:58:37.051Z,22.50
2023-03-01T13:01:21.591Z,22.50
2023-03-01T13:04:12.087Z,22.50
2023-03-01T13:06:46.546Z,22.60
2023-03-01T13:09:25.068Z,22.50
2023-03-01T13:11:52.781Z,22.60
2023-03-01T13:14:38.710Z,22.60
2023-03-01T13:17:06.536Z,22.60
2023-03-01T13:19:36.715Z,22.60
2023-03-01T13:22:29.005Z,22.60
2023-03-01T13:25:14.943Z,22.60
2023-03-01T13:27:42.693Z,22.60
2023-03-01T13:30:40.874Z,22.60
2023-03-01T13:33:37.335Z,22.60
2023-03-01T13:36:07.983Z,22.70
2023-03-01T13:38:46.695Z,22.60
2023-03-01T13:41:17.327Z,22.60
2023-03-01T13:43:48.072Z,22.70
2023-03-01T13:46:20.204Z,22.70
2023-03-01T13:48:51.804Z,22.70
2023-03-01T13:51:24.924Z,22.70
2023-03-01T13:53:54.710Z,22.70
2023-03-01T13:56:27.196Z,22.70
2023-03-01T13:59:00.211Z,22.70
2023-03-01T14:01:31.143Z,22.70
2023-03-01T14:03:59.860Z,22.70
2023-03-01T14:06:28.991Z,22.70
2023-03-01T14:09:07.305Z,22.70
2023-03-01T14:12:03.707Z,22.70
2023-03-01T14:14:43.894Z,22.60
2023-03-01T14:17:44.560Z,22.70
2023-03-01T14:20:18.341Z,22.60
2023-03-01T14:22:47.885Z,22.70
2023-03-01T14:25:28.983Z,22.70
2023-03-01T14:28:03.377Z,22.70
2023-03-01T14:30:37.357Z,22.70
2023-03-01T14:33:07.474Z,22.70
2023-03-01T14:35:37.586Z,22.70
2023-03-01T14:38:05.574Z,22.80
2023-03-01T14:40:36.735Z,22.80
2023-03-01T14:43:13.869Z,22.80
2023-03-01T14:45:48.559Z,22.80
2023-03-01T14:48:16.806Z,22.90
2023-03-01T14:50:46.183Z,22.90
2023-03-01T14:53:19.872Z,22.90
2023-03-01T14:55:50.431Z,22.90
2023-03-01T14:58:22.885Z,22.90
2023-03-01T15:00:53.269Z,23.00
2023-03-01T15:03:27.463Z,22.90
2023-03-01T15:05:55.675Z,23.00
2023-03-01T15:08:26.507Z,23.00
2023-03-01T15:11:02.581Z,23.00
2023-03-01T15:13:34.027Z,23.00
2023-03-01T15:16:12.807Z,23.00
2023-03-01T15:18:46.662Z,23.00
2023-03-01T15:21:19.407Z,23.00
2023-03-01T15:23:54.025Z,23.00
2023-03-01T15:26:30.046Z,23.00
2023-03-01T15:29:01.870Z,23.00
2023-03-01T15:31:32.057Z,23.00
2023-03-01T15:34:24.227Z,23.00
2023-03-01T15:36:53.632Z,23.00
2023-03-01T15:39:38.136Z,23.00
2023-03-01T15:42:07.700Z,23.00
2023-03-01T15:44:43.832Z,23.00
2023-03-01T15:47:26.788Z,23.00
2023-03-01T15:49:56.700Z,23.10
2023-03-01T15:52:29.904Z,23.10
2023-03-01T15:54:59.482Z,23.10
2023-03-01T15:57:27.161Z,23.10
2023-03-01T15:59:56.452Z,23.10
2023-03-01T16:02:25.228Z,23.10
2023-03-01T16:04:54.516Z,23.10
2023-03-01T16:07:22.218Z,23.10
2023-03-01T16:09:49.899Z,23.10
2023-03-01T16:12:18.605Z,23.10
2023-03-01T16:14:46.379Z,23.10
2023-03-01T16:17:16.346Z,23.10
2023-03-01T16:19:44.027Z,23.10
2023-03-01T16:22:12.419Z,23.10
2023-03-01T16:24:41.465Z,23.10
2023-03-01T16:27:09.324Z,23.10
2023-03-01T16:29:37.397Z,23.10
2023-03-01T16:32:05.726Z,23.10
2023-03-01T16:34:34.882Z,23.00
2023-03-01T16:37:02.563Z,23.00
2023-03-01T16:39:30.611Z,23.00
2023-03-01T16:41:58.296Z,23.00
2023-03-01T16:44:25.975Z,23.00
2023-03-01T16:46:53.660Z,23.00
2023-03-01T16:49:21.346Z,23.00
2023-03-01T16:51:50.397Z,23.00
2023-03-01T16:54:18.083Z,23.00
2023-03-01T16:56:45.795Z,23.00
2023-03-01T16:59:13.516Z,23.00
2023-03-01T17:01:42.005Z,22.90
2023-03-01T17:04:12.998Z,22.90
2023-03-01T17:06:40.723Z,22.90
2023-03-01T17:09:10.332Z,22.90
2023-03-01T17:11:38.064Z,22.90
2023-03-01T17:14:05.760Z,22.80
2023-03-01T17:16:33.614Z,22.80
2023-03-01T17:19:01.485Z,22.80
2023-03-01T17:21:29.605Z,22.70
2023-03-01T17:23:58.505Z,22.80
2023-03-01T17:26:29.135Z,22.70
2023-03-01T17:28:56.957Z,22.70
2023-03-01T17:31:25.077Z,22.70
2023-03-01T17:33:52.818Z,22.70
2023-03-01T17:36:20.674Z,22.70
2023-03-01T17:38:49.168Z,22.70
2023-03-01T17:41:18.683Z,22.70
2023-03-01T17:43:47.793Z,22.70
2023-03-01T17:46:15.997Z,22.70
2023-03-01T17:48:43.813Z,22.70
2023-03-01T17:51:12.588Z,22.70
2023-03-01T17:53:40.419Z,22.70
2023-03-01T17:56:08.673Z,22.60
2023-03-01T17:58:36.454Z,22.60
2023-03-01T18:01:14.386Z,22.60
2023-03-01T18:03:46.521Z,22.50
2023-03-01T18:06:16.112Z,22.50
2023-03-01T18:08:45.164Z,22.40
2023-03-01T18:11:13.541Z,22.40
2023-03-01T18:13:41.615Z,22.40
2023-03-01T18:16:12.705Z,22.30
2023-03-01T18:18:41.243Z,22.30
2023-03-01T18:21:09.475Z,22.30
2023-03-01T18:23:37.516Z,22.30
2023-03-01T18:26:07.495Z,22.30
2023-03-01T18:28:35.709Z,22.30
2023-03-01T18:31:07.929Z,22.30
2023-03-01T18:33:37.378Z,22.30
2023-03-01T18:36:05.830Z,22.20
2023-03-01T18:38:33.838Z,22.20
2023-03-01T18:41:01.528Z,22.20
2023-03-01T18:43:29.940Z,22.20
2023-03-01T18:45:59.015Z,22.20
2023-03-01T18:48:26.983Z,22.20
2023-03-01T18:50:56.438Z,22.20
2023-03-01T18:53:24.290Z,22.20
2023-03-01T18:55:51.973Z,22.20
2023-03-01T18:58:19.650Z,22.20
2023-03-01T19:00:47.327Z,22.20
2023-03-01T19:03:14.994Z,22.20
2023-03-01T19:05:42.719Z,22.20
2023-03-01T19:08:11.724Z,22.20
2023-03-01T19:10:39.430Z,22.10
2023-03-01T19:13:07.128Z,22.10
2023-03-01T19:15:34.937Z,22.10
2023-03-01T19:18:04.423Z,22.10
2023-03-01T19:20:32.228Z,22.10
2023-03-01T19:22:59.932Z,22.10
2023-03-01T19:25:28.942Z,22.10
2023-03-01T19:27:56.640Z,22.10
2023-03-01T19:30:24.392Z,22.10
2023-03-01T19:32:52.764Z,22.10
2023-03-01T19:35:20.754Z,22.10
2023-03-01T19:37:48.604Z,22.10
2023-03-01T19:40:16.328Z,22.10
2023-03-01T19:42:45.375Z,22.10
2023-03-01T19:45:14.640Z,22.10
2023-03-01T19:47:42.425Z,22.10
2023-03-01T19:50:11.275Z,22.10
2023-03-01T19:52:38.986Z,22.10
2023-03-01T19:55:10.057Z,22.10
2023-03-01T19:57:37.959Z,22.10
2023-03-01T20:00:08.938Z,22.10
2023-03-01T20:02:42.657Z,22.10
2023-03-01T20:05:11.010Z,22.00
2023-03-01T20:07:38.702Z,22.00
2023-03-01T20:10:07.388Z,22.00
2023-03-01T20:12:36.973Z,22.00
2023-03-01T20:15:05.197Z,22.00
2023-03-01T20:17:34.220Z,22.00
2023-03-01T20:20:02.026Z,22.00
2023-03-01T20:22:29.802Z,22.00
2023-03-01T20:24:57.496Z,22.00
2023-03-01T20:27:25.180Z,22.10
2023-03-01T20:29:52.866Z,22.00
2023-03-01T20:32:20.637Z,22.00
2023-03-01T20:34:49.901Z,22.00
2023-03-01T20:37:17.648Z,22.00
2023-03-01T20:39:45.359Z,22.00
2023-03-01T20:42:13.092Z,22.00
2023-03-01T20:44:44.268Z,22.00
2023-03-01T20:47:12.186Z,22.00
2023-03-01T20:49:39.937Z,22.00
2023-03-01T20:52:09.072Z,22.00
2023-03-01T20:54:37.081Z,22.00
2023-03-01T20:57:04.883Z,22.00
2023-03-01T20:59:34.851Z,22.00
2023-03-01T21:02:02.553Z,22.00
2023-03-01T21:04:30.290Z,22.00
2023-03-01T21:06:58.001Z,22.00
2023-03-01T21:09:27.042Z,22.00
2023-03-01T21:11:54.750Z,22.00
2023-03-01T21:14:23.542Z,22.00
2023-03-01T21:16:51.340Z,22.00
2023-03-01T21:19:19.143Z,22.00
2023-03-01T21:21:46.826Z,22.00
2023-03-01T21:24:14.788Z,22.00
2023-03-01T21:26:43.814Z,22.00
2023-03-01T21:29:11.525Z,22.00
2023-03-01T21:31:39.251Z,22.00
2023-03-01T21:34:07.840Z,22.00
2023-03-01T21:36:36.726Z,22.00
2023-03-01T21:39:07.138Z,22.00
2023-03-01T21:41:36.742Z,22.00
2023-03-01T21:44:07.135Z,21.90
2023-03-01T21:46:37.199Z,21.90
2023-03-01T21:49:05.642Z,21.90
2023-03-01T21:51:33.924Z,21.90
2023-03-01T21:54:02.109Z,21.90
2023-03-01T21:56:34.127Z,21.90
2023-03-01T21:59:02.489Z,21.90
2023-03-01T22:01:32.138Z,21.90
2023-03-01T22:04:01.662Z,21.90
2023-03-01T22:06:31.417Z,21.90
2023-03-01T22:09:01.270Z,21.90
2023-03-01T22:11:29.197Z,21.90
2023-03-01T22:13:57.597Z,21.90
2023-03-01T22:16:27.797Z,21.90
2023-03-01T22:18:57.125Z,21.90
2023-03-01T22:21:25.640Z,21.90
2023-03-01T22:23:54.379Z,21.80
2023-03-01T22:26:25.521Z,21.90
2023-03-01T22:28:54.675Z,21.80
2023-03-01T22:31:22.989Z,21.80
2023-03-01T22:33:51.288Z,21.80
2023-03-01T22:36:20.529Z,21.80
2023-03-01T22:38:48.312Z,21.80
2023-03-01T22:41:16.303Z,21.80
2023-03-01T22:43:44.058Z,21.80
2023-03-01T22:46:13.464Z,21.80
2023-03-01T22:48:41.303Z,21.80
2023-03-01T22:51:14.144Z,21.80
2023-03-01T22:53:43.221Z,21.90
2023-03-01T22:56:15.362Z,21.80
2023-03-01T22:58:43.639Z,21.80
2023-03-01T23:01:13.115Z,21.80
2023-03-01T23:03:40.938Z,21.80
2023-03-01T23:06:09.064Z,21.80
2023-03-01T23:08:37.619Z,21.80
2023-03-01T23:11:12.846Z,21.80
2023-03-01T23:13:41.148Z,21.80
2023-03-01T23:16:09.730Z,21.80
2023-03-01T23:18:37.642Z,21.90
2023-03-01T23:21:09.357Z,21.80
2023-03-01T23:23:37.116Z,21.80
2023-03-01T23:26:06.880Z,21.80
2023-03-01T23:28:35.430Z,21.80
2023-03-01T23:31:05.067Z,21.80
2023-03-01T23:33:37.655Z,21.80
2023-03-01T23:36:06.577Z,21.90
2023-03-01T23:38:34.610Z,21.80
2023-03-01T23:41:02.292Z,21.80
2023-03-01T23:43:33.007Z,21.90
2023-03-01T23:46:00.755Z,21.80
2023-03-01T23:48:28.574Z,21.90
2023-03-01T23:50:56.567Z,21.80
2023-03-01T23:53:24.283Z,21.80
2023-03-01T23:55:54.872Z,21.90
2023-03-01T23:58:28.230Z,21.80
